createdAt,value
2019-06-15T00:01:33.089Z,7.63
2019-06-15T00:03:59.353Z,7.00
2019-06-15T00:06:25.540Z,6.80
2019-06-15T00:08:51.844Z,7.33
2019-06-15T00:11:17.994Z,6.73
2019-06-15T00:13:44.164Z,7.27
2019-06-15T00:16:10.360Z,7.03
2019-06-15T00:18:36.522Z,7.30
2019-06-15T00:21:02.796Z,6.03
2019-06-15T00:23:29.013Z,6.37
2019-06-15T00:25:55.257Z,6.57
2019-06-15T00:28:21.413Z,6.23
2019-06-15T00:30:47.820Z,5.53
2019-06-15T00:33:14.008Z,5.90
2019-06-15T00:35:40.519Z,5.73
2019-06-15T00:38:06.746Z,6.10
2019-06-15T00:40:33.000Z,5.80
2019-06-15T00:42:59.156Z,6.20
2019-06-15T00:45:25.371Z,6.00
2019-06-15T00:47:51.541Z,6.23
2019-06-15T00:50:17.762Z,5.83
2019-06-15T00:52:43.969Z,6.13
2019-06-15T00:55:10.132Z,6.13
2019-06-15T00:57:36.302Z,5.40
2019-06-15T01:00:06.429Z,6.10
2019-06-15T01:02:32.673Z,6.00
2019-06-15T01:04:58.853Z,6.23
2019-06-15T01:07:25.173Z,6.00
2019-06-15T01:09:51.331Z,6.40
2019-06-15T01:12:17.578Z,5.43
2019-06-15T01:14:43.791Z,6.23
2019-06-15T01:17:09.943Z,6.80
2019-06-15T01:19:36.127Z,7.00
2019-06-15T01:22:02.326Z,6.90
2019-06-15T01:24:28.488Z,6.17
2019-06-15T01:26:54.656Z,6.07
2019-06-15T01:29:20.885Z,6.63
2019-06-15T01:31:47.165Z,6.33
2019-06-15T01:34:13.325Z,6.43
2019-06-15T01:36:39.536Z,6.50
2019-06-15T01:39:05.803Z,6.67
2019-06-15T01:41:31.960Z,6.83
2019-06-15T01:43:58.192Z,6.70
2019-06-15T01:46:24.363Z,6.37
2019-06-15T01:48:50.518Z,6.67
2019-06-15T01:51:16.829Z,6.40
2019-06-15T01:53:43.023Z,5.93
2019-06-15T01:56:09.183Z,7.10
2019-06-15T01:58:35.399Z,6.87
2019-06-15T02:01:01.579Z,6.63
2019-06-15T02:03:27.745Z,6.47
2019-06-15T02:05:53.973Z,7.57
2019-06-15T02:08:20.173Z,7.77
2019-06-15T02:10:46.330Z,7.73
2019-06-15T02:13:18.233Z,8.70
2019-06-15T02:15:44.377Z,8.63
2019-06-15T02:18:10.559Z,8.83
2019-06-15T02:20:36.768Z,8.10
2019-06-15T02:23:03.023Z,8.33
2019-06-15T02:25:35.822Z,9.13
2019-06-15T02:27:58.216Z,8.40
2019-06-15T02:30:26.284Z,7.40
2019-06-15T02:32:53.282Z,7.30
2019-06-15T02:35:19.577Z,7.13
2019-06-15T02:37:45.732Z,7.33
2019-06-15T02:40:12.207Z,7.33
2019-06-15T02:42:38.411Z,7.93
2019-06-15T02:45:05.789Z,7.57
2019-06-15T02:47:31.945Z,7.57
2019-06-15T02:49:58.143Z,7.17
2019-06-15T02:52:24.331Z,7.27
2019-06-15T02:54:50.486Z,8.33
2019-06-15T02:57:16.690Z,8.23
2019-06-15T02:59:42.863Z,6.70
2019-06-15T03:02:09.015Z,6.27
2019-06-15T03:04:35.224Z,7.37
2019-06-15T03:07:01.509Z,6.80
2019-06-15T03:09:27.682Z,6.47
2019-06-15T03:11:53.863Z,7.07
2019-06-15T03:14:21.050Z,6.53
2019-06-15T03:16:47.203Z,6.50
2019-06-15T03:19:13.418Z,6.27
2019-06-15T03:21:39.619Z,6.03
2019-06-15T03:24:05.784Z,6.63
2019-06-15T03:26:32.068Z,6.67
2019-06-15T03:28:58.259Z,6.70
2019-06-15T03:31:24.515Z,6.20
2019-06-15T03:33:50.739Z,6.50
2019-06-15T03:36:17.364Z,6.13
2019-06-15T03:38:43.524Z,6.70
2019-06-15T03:41:09.736Z,6.70
2019-06-15T03:43:35.911Z,6.33
2019-06-15T03:46:02.077Z,6.70
2019-06-15T03:48:28.269Z,5.70
2019-06-15T03:50:54.471Z,5.60
2019-06-15T03:53:20.657Z,6.43
2019-06-15T03:55:46.894Z,5.60
2019-06-15T03:58:13.089Z,5.03
2019-06-15T04:00:45.301Z,4.97
2019-06-15T04:03:11.503Z,5.70
2019-06-15T04:05:37.681Z,4.70
2019-06-15T04:08:03.854Z,5.07
2019-06-15T04:10:30.058Z,5.13
2019-06-15T04:12:56.247Z,5.10
2019-06-15T04:15:22.407Z,4.90
2019-06-15T04:17:48.626Z,5.37
2019-06-15T04:20:14.819Z,4.53
2019-06-15T04:22:41.044Z,5.03
2019-06-15T04:25:07.247Z,4.67
2019-06-15T04:27:33.427Z,4.73
2019-06-15T04:29:59.595Z,5.27
2019-06-15T04:32:25.810Z,5.60
2019-06-15T04:34:51.990Z,5.20
2019-06-15T04:37:18.167Z,5.60
2019-06-15T04:39:44.356Z,5.13
2019-06-15T04:42:10.536Z,5.27
2019-06-15T04:44:36.685Z,5.30
2019-06-15T04:47:02.900Z,5.03
2019-06-15T04:49:29.083Z,4.50
2019-06-15T04:51:55.257Z,5.23
2019-06-15T04:54:21.602Z,5.40
2019-06-15T04:56:50.882Z,5.33
2019-06-15T04:59:15.858Z,5.67
2019-06-15T05:01:42.062Z,4.73
2019-06-15T05:04:08.247Z,5.60
2019-06-15T05:06:36.335Z,5.40
2019-06-15T05:09:04.562Z,5.63
2019-06-15T05:11:30.741Z,5.50
2019-06-15T05:13:57.009Z,5.53
2019-06-15T05:16:23.204Z,5.37
2019-06-15T05:18:49.394Z,6.03
2019-06-15T05:21:15.575Z,5.57
2019-06-15T05:23:41.762Z,5.27
2019-06-15T05:26:07.927Z,5.37
2019-06-15T05:28:34.150Z,5.67
2019-06-15T05:31:00.314Z,5.77
2019-06-15T05:33:26.512Z,5.93
2019-06-15T05:35:52.708Z,6.37
2019-06-15T05:38:18.903Z,5.93
2019-06-15T05:40:45.073Z,6.40
2019-06-15T05:43:11.367Z,6.50
2019-06-15T05:45:37.693Z,6.40
2019-06-15T05:48:03.909Z,6.37
2019-06-15T05:50:30.096Z,6.80
2019-06-15T05:52:56.290Z,6.37
2019-06-15T05:55:22.504Z,6.93
2019-06-15T05:57:48.783Z,6.37
2019-06-15T06:00:16.886Z,6.97
2019-06-15T06:02:43.068Z,6.53
2019-06-15T06:05:10.653Z,6.13
2019-06-15T06:07:36.970Z,6.07
2019-06-15T06:10:10.801Z,5.03
2019-06-15T06:12:38.021Z,5.70
2019-06-15T06:15:05.714Z,5.80
2019-06-15T06:17:32.013Z,5.60
2019-06-15T06:19:58.292Z,5.70
2019-06-15T06:22:24.597Z,6.30
2019-06-15T06:24:50.859Z,5.27
2019-06-15T06:27:17.146Z,5.83
2019-06-15T06:29:43.450Z,6.00
2019-06-15T06:32:09.765Z,5.17
2019-06-15T06:34:36.042Z,5.30
2019-06-15T06:37:02.794Z,5.50
2019-06-15T06:39:29.060Z,6.17
2019-06-15T06:41:55.361Z,4.80
2019-06-15T06:44:21.689Z,5.50
2019-06-15T06:46:47.962Z,5.23
2019-06-15T06:49:14.246Z,5.63
2019-06-15T06:51:40.559Z,6.00
2019-06-15T06:54:06.842Z,4.90
2019-06-15T06:56:33.186Z,5.50
2019-06-15T06:58:59.511Z,5.80
2019-06-15T07:01:25.787Z,4.67
2019-06-15T07:03:52.166Z,5.10
2019-06-15T07:06:18.487Z,5.10
2019-06-15T07:08:47.931Z,4.90
2019-06-15T07:11:12.941Z,5.10
2019-06-15T07:13:39.245Z,5.17
2019-06-15T07:16:05.521Z,4.90
2019-06-15T07:18:31.806Z,5.17
2019-06-15T07:20:58.121Z,4.73
2019-06-15T07:23:24.387Z,5.33
2019-06-15T07:25:50.675Z,5.10
2019-06-15T07:28:17.278Z,5.43
2019-06-15T07:30:43.559Z,5.40
2019-06-15T07:33:09.845Z,5.40
2019-06-15T07:35:36.145Z,5.73
2019-06-15T07:38:02.418Z,5.67
2019-06-15T07:40:28.706Z,4.70
2019-06-15T07:42:55.132Z,6.47
2019-06-15T07:45:21.396Z,5.67
2019-06-15T07:47:48.707Z,5.67
2019-06-15T07:50:15.043Z,5.23
2019-06-15T07:52:41.306Z,5.23
2019-06-15T07:55:07.999Z,5.87
2019-06-15T07:57:34.456Z,4.80
2019-06-15T08:00:03.376Z,5.10
2019-06-15T08:02:29.654Z,5.53
2019-06-15T08:04:56.004Z,5.67
2019-06-15T08:07:22.268Z,5.37
2019-06-15T08:09:48.549Z,5.30
2019-06-15T08:12:14.875Z,5.33
2019-06-15T08:14:41.142Z,5.43
2019-06-15T08:17:07.414Z,5.47
2019-06-15T08:19:33.745Z,5.30
2019-06-15T08:22:02.012Z,4.73
2019-06-15T08:24:28.294Z,5.27
2019-06-15T08:26:54.630Z,5.10
2019-06-15T08:32:09.789Z,5.13
2019-06-15T08:34:36.124Z,4.90
2019-06-15T08:37:02.415Z,4.70
2019-06-15T08:39:28.729Z,5.27
2019-06-15T08:41:56.949Z,5.03
2019-06-15T08:44:23.626Z,5.03
2019-06-15T08:46:53.007Z,5.03
2019-06-15T08:49:19.284Z,5.20
2019-06-15T08:51:45.464Z,4.97
2019-06-15T08:54:11.682Z,4.70
2019-06-15T08:56:37.877Z,5.67
2019-06-15T08:59:04.029Z,4.90
2019-06-15T09:01:30.249Z,5.00
2019-06-15T09:04:01.576Z,5.06
2019-06-15T09:06:27.734Z,4.70
2019-06-15T09:08:54.964Z,4.77
2019-06-15T09:11:21.147Z,5.27
2019-06-15T09:13:47.291Z,5.47
2019-06-15T09:16:13.489Z,5.67
2019-06-15T09:18:39.672Z,5.50
2019-06-15T09:21:05.852Z,4.67
2019-06-15T09:23:32.038Z,5.97
2019-06-15T09:25:58.223Z,5.03
2019-06-15T09:28:24.389Z,5.27
2019-06-15T09:30:50.600Z,5.03
2019-06-15T09:33:16.875Z,5.40
2019-06-15T09:35:43.145Z,4.83
2019-06-15T09:38:09.606Z,5.43
2019-06-15T09:40:35.854Z,4.33
2019-06-15T09:43:02.032Z,5.60
2019-06-15T09:45:28.317Z,4.40
2019-06-15T09:47:54.491Z,5.30
2019-06-15T09:50:20.682Z,5.37
2019-06-15T09:52:47.171Z,5.27
2019-06-15T09:55:13.707Z,4.90
2019-06-15T09:57:40.018Z,4.93
2019-06-15T10:00:07.629Z,5.40
2019-06-15T10:02:33.809Z,5.20
2019-06-15T10:05:00.083Z,5.93
2019-06-15T10:07:26.286Z,5.20
2019-06-15T10:09:52.566Z,5.50
2019-06-15T10:12:18.779Z,5.00
2019-06-15T10:14:44.957Z,5.30
2019-06-15T10:17:11.356Z,5.40
2019-06-15T10:19:37.505Z,4.83
2019-06-15T10:22:03.709Z,4.67
2019-06-15T10:24:29.849Z,5.33
2019-06-15T10:26:56.024Z,5.17
2019-06-15T10:29:22.223Z,4.30
2019-06-15T10:31:48.482Z,4.90
2019-06-15T10:34:14.646Z,4.73
2019-06-15T10:36:40.843Z,4.70
2019-06-15T10:39:07.203Z,4.77
2019-06-15T10:41:33.359Z,4.33
2019-06-15T10:43:59.556Z,4.60
2019-06-15T10:46:25.709Z,4.13
2019-06-15T10:48:51.871Z,4.27
2019-06-15T10:51:18.070Z,4.20
2019-06-15T10:53:44.353Z,3.27
2019-06-15T10:56:10.516Z,3.70
2019-06-15T10:58:36.815Z,3.80
2019-06-15T11:01:03.313Z,4.13
2019-06-15T11:03:29.908Z,4.87
2019-06-15T11:05:56.089Z,4.83
2019-06-15T11:08:22.285Z,4.57
2019-06-15T11:10:52.016Z,4.33
2019-06-15T11:13:18.208Z,3.70
2019-06-15T11:15:44.877Z,3.83
2019-06-15T11:18:11.052Z,3.93
2019-06-15T11:20:37.309Z,4.13
2019-06-15T11:23:03.549Z,4.43
2019-06-15T11:25:30.108Z,3.70
2019-06-15T11:27:56.294Z,4.57
2019-06-15T11:30:23.378Z,4.50
2019-06-15T11:32:49.551Z,4.53
2019-06-15T11:35:15.736Z,4.07
2019-06-15T11:37:41.895Z,4.17
2019-06-15T11:40:08.560Z,4.40
2019-06-15T11:42:34.768Z,4.43
2019-06-15T11:45:00.934Z,4.57
2019-06-15T11:47:27.096Z,4.27
2019-06-15T11:49:53.288Z,4.67
2019-06-15T11:52:19.451Z,4.67
2019-06-15T11:54:45.625Z,4.23
2019-06-15T11:57:11.818Z,3.67
2019-06-15T11:59:37.979Z,4.47
2019-06-15T12:02:04.190Z,3.83
2019-06-15T12:04:30.389Z,3.90
2019-06-15T12:06:56.557Z,4.30
2019-06-15T12:09:22.714Z,3.90
2019-06-15T12:11:48.899Z,3.50
2019-06-15T12:14:15.056Z,3.70
2019-06-15T12:16:41.232Z,3.13
2019-06-15T12:19:07.530Z,3.03
2019-06-15T12:21:33.789Z,2.97
2019-06-15T12:23:59.947Z,2.83
2019-06-15T12:26:26.140Z,2.97
2019-06-15T12:28:52.301Z,3.60
2019-06-15T12:31:18.462Z,3.70
2019-06-15T12:33:44.659Z,2.93
2019-06-15T12:36:19.168Z,2.80
2019-06-15T12:38:39.328Z,3.20
2019-06-15T12:41:05.529Z,2.83
2019-06-15T12:43:31.737Z,3.20
2019-06-15T12:45:58.091Z,3.33
2019-06-15T12:48:24.283Z,3.50
2019-06-15T12:50:50.447Z,2.80
2019-06-15T12:53:16.605Z,3.20
2019-06-15T12:55:42.904Z,3.17
2019-06-15T12:58:09.071Z,3.00
2019-06-15T13:00:36.740Z,3.33
2019-06-15T13:03:02.993Z,2.40
2019-06-15T13:05:29.138Z,2.87
2019-06-15T13:07:55.297Z,3.13
2019-06-15T13:10:21.929Z,2.77
2019-06-15T13:12:48.105Z,3.00
2019-06-15T13:15:14.780Z,3.03
2019-06-15T13:17:40.983Z,3.20
2019-06-15T13:20:07.529Z,3.13
2019-06-15T13:22:33.746Z,2.67
2019-06-15T13:24:59.985Z,3.30
2019-06-15T13:27:26.159Z,3.40
2019-06-15T13:29:52.412Z,3.17
2019-06-15T13:32:18.614Z,3.00
2019-06-15T13:34:44.796Z,3.20
2019-06-15T13:37:10.953Z,3.03
2019-06-15T13:39:37.150Z,3.37
2019-06-15T13:42:03.307Z,3.00
2019-06-15T13:44:29.483Z,2.90
2019-06-15T13:46:55.724Z,3.40
2019-06-15T13:49:21.962Z,2.97
2019-06-15T13:51:48.128Z,3.40
2019-06-15T13:54:14.446Z,3.17
2019-06-15T13:56:40.726Z,3.03
2019-06-15T13:59:06.883Z,3.23
2019-06-15T14:01:34.334Z,3.57
2019-06-15T14:04:01.150Z,3.93
2019-06-15T14:06:27.309Z,3.57
2019-06-15T14:08:53.495Z,3.50
2019-06-15T14:11:19.653Z,3.13
2019-06-15T14:13:45.809Z,3.67
2019-06-15T14:16:12.013Z,3.60
2019-06-15T14:18:38.269Z,3.43
2019-06-15T14:21:04.434Z,3.40
2019-06-15T14:23:30.615Z,3.33
2019-06-15T14:25:56.811Z,3.00
2019-06-15T14:28:22.963Z,3.07
2019-06-15T14:30:49.199Z,3.33
2019-06-15T14:33:15.689Z,3.37
2019-06-15T14:35:43.939Z,3.33
2019-06-15T14:38:10.068Z,3.17
2019-06-15T14:40:37.529Z,3.37
2019-06-15T14:43:03.718Z,5.23
2019-06-15T14:45:30.240Z,3.23
2019-06-15T14:47:56.411Z,3.70
2019-06-15T14:50:22.575Z,3.60
2019-06-15T14:52:48.776Z,3.70
2019-06-15T14:55:15.256Z,3.20
2019-06-15T14:57:41.506Z,3.83
2019-06-15T15:00:09.254Z,3.87
2019-06-15T15:02:37.163Z,3.40
2019-06-15T15:05:06.910Z,4.13
2019-06-15T15:07:33.594Z,3.87
2019-06-15T15:09:59.849Z,4.60
2019-06-15T15:12:26.805Z,3.93
2019-06-15T15:14:53.213Z,4.10
2019-06-15T15:17:19.569Z,4.70
2019-06-15T15:19:46.649Z,3.83
2019-06-15T15:22:13.050Z,4.13
2019-06-15T15:24:39.224Z,3.20
2019-06-15T15:27:05.488Z,4.40
2019-06-15T15:29:31.793Z,4.03
2019-06-15T15:31:58.071Z,3.47
2019-06-15T15:34:26.112Z,3.90
2019-06-15T15:36:52.541Z,4.10
2019-06-15T15:39:19.038Z,4.33
2019-06-15T15:41:47.039Z,3.60
2019-06-15T15:44:13.305Z,3.80
2019-06-15T15:46:39.459Z,3.77
2019-06-15T15:49:07.012Z,3.50
2019-06-15T15:51:33.302Z,3.63
2019-06-15T15:53:59.574Z,3.73
2019-06-15T15:56:27.230Z,3.80
2019-06-15T15:58:56.099Z,3.47
2019-06-15T16:01:21.873Z,3.80
2019-06-15T16:03:48.146Z,3.83
2019-06-15T16:06:14.386Z,3.60
2019-06-15T16:08:40.551Z,4.23
2019-06-15T16:11:06.709Z,3.87
2019-06-15T16:13:32.905Z,3.83
2019-06-15T16:15:59.056Z,3.90
2019-06-15T16:18:25.226Z,4.07
2019-06-15T16:20:51.422Z,4.00
2019-06-15T16:23:17.590Z,4.30
2019-06-15T16:25:46.062Z,3.97
2019-06-15T16:28:11.847Z,4.17
2019-06-15T16:31:00.443Z,4.10
2019-06-15T16:33:07.663Z,4.13
2019-06-15T16:35:36.170Z,3.90
2019-06-15T16:38:02.549Z,4.27
2019-06-15T16:40:32.523Z,4.67
2019-06-15T16:42:58.868Z,5.13
2019-06-15T16:45:26.659Z,5.63
2019-06-15T16:47:52.967Z,4.50
2019-06-15T16:50:19.149Z,4.27
2019-06-15T16:52:46.902Z,4.50
2019-06-15T16:55:13.271Z,4.27
2019-06-15T16:57:39.461Z,5.03
2019-06-15T17:00:32.883Z,4.80
2019-06-15T17:02:59.218Z,4.30
2019-06-15T17:05:27.452Z,4.77
2019-06-15T17:07:53.574Z,4.40
2019-06-15T17:10:29.381Z,4.60
2019-06-15T17:12:56.158Z,4.73
2019-06-15T17:15:22.410Z,4.43
2019-06-15T17:17:48.633Z,4.20
2019-06-15T17:20:18.412Z,4.37
2019-06-15T17:22:47.119Z,4.37
2019-06-15T17:25:12.824Z,3.60
2019-06-15T17:27:39.017Z,4.03
2019-06-15T17:30:07.045Z,3.33
2019-06-15T17:32:33.711Z,2.83
2019-06-15T17:34:59.979Z,3.60
2019-06-15T17:37:26.731Z,2.47
2019-06-15T17:39:55.871Z,2.83
2019-06-15T17:42:21.713Z,2.70
2019-06-15T17:44:47.875Z,2.73
2019-06-15T17:47:16.776Z,2.80
2019-06-15T17:49:42.179Z,3.70
2019-06-15T17:52:08.326Z,4.00
2019-06-15T17:54:37.212Z,3.90
2019-06-15T17:57:02.639Z,3.53
2019-06-15T17:59:29.391Z,3.30
2019-06-15T18:01:55.716Z,3.40
2019-06-15T18:04:21.890Z,4.37
2019-06-15T18:06:48.043Z,8.13
2019-06-15T18:09:16.816Z,3.70
2019-06-15T18:11:42.328Z,3.73
2019-06-15T18:14:08.482Z,3.83
2019-06-15T18:16:36.928Z,4.37
2019-06-15T18:19:02.775Z,6.17
2019-06-15T18:21:28.937Z,4.23
2019-06-15T18:23:57.339Z,4.47
2019-06-15T18:26:23.311Z,4.60
2019-06-15T18:28:49.481Z,4.83
2019-06-15T18:31:16.317Z,4.27
2019-06-15T18:33:42.841Z,4.13
2019-06-15T18:36:09.021Z,4.63
2019-06-15T18:38:37.160Z,4.07
2019-06-15T18:41:03.576Z,4.03
2019-06-15T18:43:29.757Z,5.20
2019-06-15T18:45:56.781Z,6.20
2019-06-15T18:48:23.221Z,4.13
2019-06-15T18:50:49.401Z,4.07
2019-06-15T18:53:15.580Z,4.70
2019-06-15T18:55:41.757Z,4.17
2019-06-15T18:58:07.930Z,5.33
2019-06-15T19:00:36.826Z,6.10
2019-06-15T19:03:02.200Z,5.50
2019-06-15T19:05:28.369Z,7.57
2019-06-15T19:07:56.604Z,6.60
2019-06-15T19:10:36.536Z,6.00
2019-06-15T19:13:03.825Z,8.37
2019-06-15T19:15:30.100Z,5.20
2019-06-15T19:17:56.262Z,5.13
2019-06-15T19:20:26.486Z,5.57
2019-06-15T19:22:52.429Z,5.37
2019-06-15T19:25:18.594Z,5.47
2019-06-15T19:27:44.813Z,5.60
2019-06-15T19:30:10.970Z,5.97
2019-06-15T19:32:37.151Z,5.70
2019-06-15T19:35:29.158Z,5.63
2019-06-15T19:37:56.693Z,5.57
2019-06-15T19:40:23.257Z,4.70
2019-06-15T19:42:49.483Z,5.43
2019-06-15T19:45:17.737Z,5.57
2019-06-15T19:47:43.991Z,6.30
2019-06-15T19:50:12.554Z,5.50
2019-06-15T19:52:38.773Z,6.00
2019-06-15T19:55:06.712Z,5.83
2019-06-15T19:57:33.165Z,5.93
2019-06-15T19:59:59.307Z,6.03
2019-06-15T20:02:26.998Z,6.60
2019-06-15T20:05:00.259Z,6.27
2019-06-15T20:07:21.561Z,6.90
2019-06-15T20:09:47.720Z,6.83
2019-06-15T20:12:20.879Z,5.43
2019-06-15T20:14:42.049Z,6.17
2019-06-15T20:17:08.213Z,5.83
2019-06-15T20:19:37.527Z,5.70
2019-06-15T20:22:02.877Z,5.27
2019-06-15T20:24:29.050Z,4.93
2019-06-15T20:26:56.146Z,6.00
2019-06-15T20:29:23.302Z,4.97
2019-06-15T20:31:49.479Z,4.80
2019-06-15T20:34:16.582Z,4.07
2019-06-15T20:36:42.831Z,4.33
2019-06-15T20:39:09.007Z,4.47
2019-06-15T20:41:36.457Z,3.77
2019-06-15T20:44:03.171Z,3.87
2019-06-15T20:46:29.325Z,3.97
2019-06-15T20:48:56.529Z,4.10
2019-06-15T20:51:22.893Z,4.33
2019-06-15T20:53:49.067Z,5.70
2019-06-15T20:56:17.051Z,4.53
2019-06-15T20:58:43.332Z,4.30
2019-06-15T21:01:09.484Z,4.60
2019-06-15T21:03:36.746Z,3.90
2019-06-15T21:06:06.569Z,5.30
2019-06-15T21:08:31.362Z,4.67
2019-06-15T21:10:57.570Z,4.37
2019-06-15T21:13:26.223Z,4.87
2019-06-15T21:15:51.921Z,5.10
2019-06-15T21:18:18.141Z,4.23
2019-06-15T21:20:46.816Z,4.90
2019-06-15T21:23:12.379Z,4.90
2019-06-15T21:25:38.564Z,4.73
2019-06-15T21:28:06.702Z,4.60
2019-06-15T21:30:32.923Z,5.47
2019-06-15T21:32:59.241Z,4.80
2019-06-15T21:35:26.829Z,4.97
2019-06-15T21:37:56.955Z,4.40
2019-06-15T21:40:22.811Z,3.37
2019-06-15T21:42:49.431Z,4.03
2019-06-15T21:45:15.811Z,3.17
2019-06-15T21:47:42.024Z,3.03
2019-06-15T21:50:11.212Z,2.57
2019-06-15T21:52:37.501Z,3.03
2019-06-15T21:55:06.948Z,3.17
2019-06-15T21:57:36.555Z,3.30
2019-06-15T22:00:17.175Z,3.47
2019-06-15T22:02:42.260Z,3.07
2019-06-15T22:05:09.038Z,3.33
2019-06-15T22:07:36.797Z,3.53
2019-06-15T22:10:28.535Z,4.00
2019-06-15T22:12:57.103Z,5.17
2019-06-15T22:15:22.909Z,5.83
2019-06-15T22:17:53.067Z,5.70
2019-06-15T22:20:19.267Z,6.33
2019-06-15T22:22:47.090Z,6.70
2019-06-15T22:25:15.828Z,6.97
2019-06-15T22:27:41.414Z,6.23
2019-06-15T22:30:09.764Z,6.00
2019-06-15T22:32:36.497Z,7.83
2019-06-15T22:35:07.130Z,6.67
2019-06-15T22:37:35.807Z,4.90
2019-06-15T22:40:01.982Z,4.80
2019-06-15T22:42:28.743Z,4.50
2019-06-15T22:44:56.799Z,4.13
2019-06-15T22:47:22.983Z,4.70
2019-06-15T22:49:49.310Z,4.57
2019-06-15T22:52:17.099Z,4.00
2019-06-15T22:54:43.542Z,4.03
2019-06-15T22:57:09.762Z,3.97
2019-06-15T22:59:37.552Z,3.80
2019-06-15T23:02:03.729Z,3.47
2019-06-15T23:04:29.947Z,3.60
2019-06-15T23:06:56.622Z,3.17
2019-06-15T23:09:23.088Z,3.50
2019-06-15T23:11:49.279Z,3.53
2019-06-15T23:14:17.208Z,3.77
2019-06-15T23:16:43.521Z,3.00
2019-06-15T23:19:09.735Z,3.40
2019-06-15T23:21:37.352Z,3.50
2019-06-15T23:24:03.656Z,3.73
2019-06-15T23:26:29.880Z,2.97
2019-06-15T23:28:56.572Z,3.30
2019-06-15T23:31:23.027Z,3.23
2019-06-15T23:33:49.227Z,3.47
2019-06-15T23:36:17.287Z,3.13
2019-06-15T23:38:43.458Z,3.30
2019-06-15T23:41:09.798Z,3.50
2019-06-15T23:43:36.272Z,3.30
2019-06-15T23:46:02.747Z,3.33
2019-06-15T23:48:28.960Z,3.53
2019-06-15T23:50:56.964Z,3.80
2019-06-15T23:53:23.198Z,3.60
2019-06-15T23:55:49.425Z,3.60
2019-06-15T23:58:17.583Z,4.07
